Arcade, New York
Current Conditions -  °F | °C
As of 4:35 AM on Monday 24 Nov 2014 (Local Time) from KOLE Reporting Station
Overcast Overcast  
Wind Chill: 10°   Ceiling: 1000
Heat Index: 10°   Visibility: 10mi
Dew Point: 10°   Wind: 20mph
Humidity: 100%   Direction: 200°SSW
Pressure: 29.39"   Gusts: 36mph
Location:  42.53°N, 78.42°W
Report Text: KOLE 240935Z AUTO 20017G31KT 10SM OVC010 10/10 A2939 RMK AO2
Loading
Personal Weather Stations






























Interactive Weather Map New forecast layout! Learn more

10-Day Weather Forecast

Advertisements
Track Severe Weather on mobile